Madison, Missouri
Current Conditions -  °F | °C
As of 5:55 PM on Monday 22 Dec 2014 (Local Time) from KHAE Reporting Station
Unknown Precip Unknown Precip  
Wind Chill: 44°   Ceiling: 800
Heat Index: 46°   Visibility: 4mi
Dew Point: 45°   Wind: 5mph
Humidity: 93%   Direction: 130°SE
Pressure: 29.49"   Gusts: NA
Location:  39.47°N, 92.21°W
Report Text: KHAE 222355Z AUTO 13004KT 4SM UP OVC008 08/07 A2949 RMK AO2 P0001
Loading
Personal Weather Stations






























Interactive Weather Map New forecast layout! Learn more

10-Day Weather Forecast

Advertisements
Track Severe Weather on mobile